sensor_id;sensor_type;location;lat;lon;timestamp;P1;durP1;ratioP1;P2;durP2;ratioP2
21505;SDS011;10914;48.886;9.394;2024-01-15T00:00:25;52.85;;;42.47;;
21505;SDS011;10914;48.886;9.394;2024-01-15T00:02:50;51.67;;;42.80;;
21505;SDS011;10914;48.886;9.394;2024-01-15T00:05:15;55.35;;;42.17;;
21505;SDS011;10914;48.886;9.394;2024-01-15T00:07:40;51.38;;;43.10;;
21505;SDS011;10914;48.886;9.394;2024-01-15T00:10:05;48.58;;;41.94;;
21505;SDS011;10914;48.886;9.394;2024-01-15T00:12:31;54.60;;;43.95;;
21505;SDS011;10914;48.886;9.394;2024-01-15T00:14:56;52.03;;;44.72;;
21505;SDS011;10914;48.886;9.394;2024-01-15T00:17:21;50.38;;;44.55;;
21505;SDS011;10914;48.886;9.394;2024-01-15T00:19:46;51.42;;;44.80;;
21505;SDS011;10914;48.886;9.394;2024-01-15T00:22:11;56.08;;;44.83;;
21505;SDS011;10914;48.886;9.394;2024-01-15T00:24:36;53.13;;;45.03;;
21505;SDS011;10914;48.886;9.394;2024-01-15T00:27:01;53.95;;;44.00;;
21505;SDS011;10914;48.886;9.394;2024-01-15T00:29:27;52.63;;;44.20;;
21505;SDS011;10914;48.886;9.394;2024-01-15T00:31:52;54.15;;;44.40;;
21505;SDS011;10914;48.886;9.394;2024-01-15T00:34:17;53.40;;;46.15;;
21505;SDS011;10914;48.886;9.394;2024-01-15T00:36:42;52.17;;;43.90;;
21505;SDS011;10914;48.886;9.394;2024-01-15T00:39:07;50.70;;;42.65;;
21505;SDS011;10914;48.886;9.394;2024-01-15T00:41:33;49.28;;;41.90;;
21505;SDS011;10914;48.886;9.394;2024-01-15T00:43:58;52.05;;;43.55;;
21505;SDS011;10914;48.886;9.394;2024-01-15T00:46:23;53.45;;;44.17;;
21505;SDS011;10914;48.886;9.394;2024-01-15T00:48:48;57.00;;;43.64;;
21505;SDS011;10914;48.886;9.394;2024-01-15T00:51:13;49.15;;;41.88;;
21505;SDS011;10914;48.886;9.394;2024-01-15T00:53:39;54.08;;;43.10;;
21505;SDS011;10914;48.886;9.394;2024-01-15T00:56:04;53.83;;;43.42;;
21505;SDS011;10914;48.886;9.394;2024-01-15T00:58:29;54.45;;;41.90;;
21505;SDS011;10914;48.886;9.394;2024-01-15T01:00:54;49.08;;;41.78;;
21505;SDS011;10914;48.886;9.394;2024-01-15T01:03:20;52.05;;;43.85;;
21505;SDS011;10914;48.886;9.394;2024-01-15T01:05:45;53.78;;;43.15;;
21505;SDS011;10914;48.886;9.394;2024-01-15T01:08:10;53.40;;;43.75;;
21505;SDS011;10914;48.886;9.394;2024-01-15T01:10:36;50.83;;;42.17;;
21505;SDS011;10914;48.886;9.394;2024-01-15T01:13:01;55.30;;;43.28;;
21505;SDS011;10914;48.886;9.394;2024-01-15T01:15:26;51.42;;;41.88;;
21505;SDS011;10914;48.886;9.394;2024-01-15T01:17:52;47.42;;;41.15;;
21505;SDS011;10914;48.886;9.394;2024-01-15T01:20:17;52.15;;;43.58;;
21505;SDS011;10914;48.886;9.394;2024-01-15T01:22:42;52.63;;;43.38;;
21505;SDS011;10914;48.886;9.394;2024-01-15T01:25:08;49.95;;;40.78;;
21505;SDS011;10914;48.886;9.394;2024-01-15T01:27:34;51.78;;;43.67;;
21505;SDS011;10914;48.886;9.394;2024-01-15T01:29:59;48.53;;;41.10;;
21505;SDS011;10914;48.886;9.394;2024-01-15T01:32:25;50.58;;;43.63;;
21505;SDS011;10914;48.886;9.394;2024-01-15T01:34:50;50.70;;;43.05;;
21505;SDS011;10914;48.886;9.394;2024-01-15T01:37:15;53.10;;;43.22;;
21505;SDS011;10914;48.886;9.394;2024-01-15T01:39:41;56.85;;;42.53;;
21505;SDS011;10914;48.886;9.394;2024-01-15T01:42:06;51.97;;;43.53;;
21505;SDS011;10914;48.886;9.394;2024-01-15T01:44:31;54.47;;;42.55;;
21505;SDS011;10914;48.886;9.394;2024-01-15T01:46:57;50.42;;;42.67;;
21505;SDS011;10914;48.886;9.394;2024-01-15T01:49:23;57.75;;;44.65;;
21505;SDS011;10914;48.886;9.394;2024-01-15T01:51:49;53.55;;;43.38;;
21505;SDS011;10914;48.886;9.394;2024-01-15T01:54:15;58.13;;;44.15;;
21505;SDS011;10914;48.886;9.394;2024-01-15T01:56:41;55.58;;;45.22;;
21505;SDS011;10914;48.886;9.394;2024-01-15T01:59:06;52.25;;;44.28;;
21505;SDS011;10914;48.886;9.394;2024-01-15T02:01:32;48.72;;;43.17;;
21505;SDS011;10914;48.886;9.394;2024-01-15T02:03:58;55.88;;;45.33;;
21505;SDS011;10914;48.886;9.394;2024-01-15T02:06:23;52.22;;;45.22;;
21505;SDS011;10914;48.886;9.394;2024-01-15T02:08:49;54.40;;;44.53;;
21505;SDS011;10914;48.886;9.394;2024-01-15T02:11:15;45.15;;;40.45;;
21505;SDS011;10914;48.886;9.394;2024-01-15T02:13:40;40.25;;;36.30;;
21505;SDS011;10914;48.886;9.394;2024-01-15T02:16:05;41.42;;;36.97;;
21505;SDS011;10914;48.886;9.394;2024-01-15T02:18:39;42.25;;;37.67;;
21505;SDS011;10914;48.886;9.394;2024-01-15T02:21:04;40.42;;;36.35;;
21505;SDS011;10914;48.886;9.394;2024-01-15T02:23:29;39.20;;;35.30;;
21505;SDS011;10914;48.886;9.394;2024-01-15T02:25:55;38.42;;;34.72;;
21505;SDS011;10914;48.886;9.394;2024-01-15T02:28:20;39.25;;;35.38;;
21505;SDS011;10914;48.886;9.394;2024-01-15T02:30:45;38.22;;;34.42;;
21505;SDS011;10914;48.886;9.394;2024-01-15T02:33:11;37.30;;;33.80;;
21505;SDS011;10914;48.886;9.394;2024-01-15T02:35:36;38.13;;;33.90;;
21505;SDS011;10914;48.886;9.394;2024-01-15T02:38:01;36.75;;;32.97;;
21505;SDS011;10914;48.886;9.394;2024-01-15T02:40:27;37.55;;;33.80;;
21505;SDS011;10914;48.886;9.394;2024-01-15T02:42:52;36.03;;;32.63;;
21505;SDS011;10914;48.886;9.394;2024-01-15T02:45:18;37.53;;;33.72;;
21505;SDS011;10914;48.886;9.394;2024-01-15T02:47:43;37.00;;;33.30;;
21505;SDS011;10914;48.886;9.394;2024-01-15T02:50:08;35.25;;;31.88;;
21505;SDS011;10914;48.886;9.394;2024-01-15T02:52:33;37.17;;;33.53;;
21505;SDS011;10914;48.886;9.394;2024-01-15T02:54:59;36.50;;;33.25;;
21505;SDS011;10914;48.886;9.394;2024-01-15T02:57:24;37.38;;;33.92;;
21505;SDS011;10914;48.886;9.394;2024-01-15T02:59:49;37.10;;;33.37;;
21505;SDS011;10914;48.886;9.394;2024-01-15T03:02:14;36.95;;;33.25;;
21505;SDS011;10914;48.886;9.394;2024-01-15T03:04:43;37.28;;;33.50;;
21505;SDS011;10914;48.886;9.394;2024-01-15T03:07:08;37.50;;;33.83;;
21505;SDS011;10914;48.886;9.394;2024-01-15T03:09:33;38.13;;;34.33;;
21505;SDS011;10914;48.886;9.394;2024-01-15T03:11:58;36.53;;;33.15;;
21505;SDS011;10914;48.886;9.394;2024-01-15T03:14:23;37.78;;;34.08;;
21505;SDS011;10914;48.886;9.394;2024-01-15T03:16:51;37.67;;;33.95;;
21505;SDS011;10914;48.886;9.394;2024-01-15T03:19:16;36.75;;;33.25;;
21505;SDS011;10914;48.886;9.394;2024-01-15T03:21:41;38.00;;;34.28;;
21505;SDS011;10914;48.886;9.394;2024-01-15T03:24:06;38.37;;;34.53;;
21505;SDS011;10914;48.886;9.394;2024-01-15T03:26:31;38.17;;;34.28;;
21505;SDS011;10914;48.886;9.394;2024-01-15T03:28:56;37.47;;;33.53;;
21505;SDS011;10914;48.886;9.394;2024-01-15T03:31:22;35.75;;;32.40;;
21505;SDS011;10914;48.886;9.394;2024-01-15T03:33:47;37.08;;;33.42;;
21505;SDS011;10914;48.886;9.394;2024-01-15T03:36:12;36.50;;;33.15;;
21505;SDS011;10914;48.886;9.394;2024-01-15T03:38:40;35.00;;;31.70;;
21505;SDS011;10914;48.886;9.394;2024-01-15T03:41:05;36.45;;;32.97;;
21505;SDS011;10914;48.886;9.394;2024-01-15T03:43:31;37.35;;;33.67;;
21505;SDS011;10914;48.886;9.394;2024-01-15T03:45:56;39.03;;;34.88;;
21505;SDS011;10914;48.886;9.394;2024-01-15T03:48:21;36.30;;;32.72;;
21505;SDS011;10914;48.886;9.394;2024-01-15T03:50:46;36.65;;;33.17;;
21505;SDS011;10914;48.886;9.394;2024-01-15T03:53:11;36.58;;;32.95;;
21505;SDS011;10914;48.886;9.394;2024-01-15T03:55:36;38.50;;;34.67;;
21505;SDS011;10914;48.886;9.394;2024-01-15T03:58:02;37.92;;;34.35;;
21505;SDS011;10914;48.886;9.394;2024-01-15T04:00:27;38.15;;;34.30;;
21505;SDS011;10914;48.886;9.394;2024-01-15T04:02:52;36.13;;;32.73;;
21505;SDS011;10914;48.886;9.394;2024-01-15T04:05:17;37.20;;;33.58;;
21505;SDS011;10914;48.886;9.394;2024-01-15T04:07:42;36.30;;;32.80;;
21505;SDS011;10914;48.886;9.394;2024-01-15T04:10:07;36.15;;;32.78;;
21505;SDS011;10914;48.886;9.394;2024-01-15T04:12:33;36.08;;;32.45;;
21505;SDS011;10914;48.886;9.394;2024-01-15T04:14:58;36.60;;;32.80;;
21505;SDS011;10914;48.886;9.394;2024-01-15T04:17:23;35.50;;;32.20;;
21505;SDS011;10914;48.886;9.394;2024-01-15T04:19:49;37.10;;;33.33;;
21505;SDS011;10914;48.886;9.394;2024-01-15T04:22:14;36.45;;;33.03;;
21505;SDS011;10914;48.886;9.394;2024-01-15T04:24:39;36.65;;;33.10;;
21505;SDS011;10914;48.886;9.394;2024-01-15T04:27:04;36.15;;;32.97;;
21505;SDS011;10914;48.886;9.394;2024-01-15T04:29:29;35.65;;;32.42;;
21505;SDS011;10914;48.886;9.394;2024-01-15T04:31:55;35.45;;;32.05;;
21505;SDS011;10914;48.886;9.394;2024-01-15T04:34:20;37.03;;;33.35;;
21505;SDS011;10914;48.886;9.394;2024-01-15T04:36:45;34.00;;;30.88;;
21505;SDS011;10914;48.886;9.394;2024-01-15T04:39:10;35.97;;;32.78;;
21505;SDS011;10914;48.886;9.394;2024-01-15T04:41:36;34.97;;;31.75;;
21505;SDS011;10914;48.886;9.394;2024-01-15T04:44:02;35.90;;;32.60;;
21505;SDS011;10914;48.886;9.394;2024-01-15T04:46:27;35.08;;;32.08;;
21505;SDS011;10914;48.886;9.394;2024-01-15T04:48:52;35.05;;;31.70;;
21505;SDS011;10914;48.886;9.394;2024-01-15T04:51:17;34.63;;;31.52;;
21505;SDS011;10914;48.886;9.394;2024-01-15T04:53:42;34.97;;;31.77;;
21505;SDS011;10914;48.886;9.394;2024-01-15T04:56:07;34.45;;;31.52;;
21505;SDS011;10914;48.886;9.394;2024-01-15T04:58:33;34.55;;;31.35;;
21505;SDS011;10914;48.886;9.394;2024-01-15T05:00:58;33.72;;;30.70;;
21505;SDS011;10914;48.886;9.394;2024-01-15T05:03:23;34.95;;;31.77;;
21505;SDS011;10914;48.886;9.394;2024-01-15T05:05:48;35.28;;;31.83;;
21505;SDS011;10914;48.886;9.394;2024-01-15T05:08:13;33.60;;;30.80;;
21505;SDS011;10914;48.886;9.394;2024-01-15T05:10:38;36.47;;;32.67;;
21505;SDS011;10914;48.886;9.394;2024-01-15T05:13:04;35.28;;;32.22;;
21505;SDS011;10914;48.886;9.394;2024-01-15T05:15:29;34.88;;;31.60;;
21505;SDS011;10914;48.886;9.394;2024-01-15T05:17:54;34.55;;;31.38;;
21505;SDS011;10914;48.886;9.394;2024-01-15T05:20:19;35.53;;;32.28;;
21505;SDS011;10914;48.886;9.394;2024-01-15T05:22:45;36.55;;;33.10;;
21505;SDS011;10914;48.886;9.394;2024-01-15T05:25:10;36.55;;;33.17;;
21505;SDS011;10914;48.886;9.394;2024-01-15T05:27:35;37.47;;;33.85;;
21505;SDS011;10914;48.886;9.394;2024-01-15T05:30:00;37.70;;;34.28;;
21505;SDS011;10914;48.886;9.394;2024-01-15T05:32:25;37.03;;;33.57;;
21505;SDS011;10914;48.886;9.394;2024-01-15T05:34:50;36.00;;;32.67;;
21505;SDS011;10914;48.886;9.394;2024-01-15T05:37:15;34.97;;;31.67;;
21505;SDS011;10914;48.886;9.394;2024-01-15T05:39:41;35.03;;;31.95;;
21505;SDS011;10914;48.886;9.394;2024-01-15T05:42:06;34.78;;;31.58;;
21505;SDS011;10914;48.886;9.394;2024-01-15T05:44:31;34.63;;;31.55;;
21505;SDS011;10914;48.886;9.394;2024-01-15T05:46:56;34.78;;;31.58;;
21505;SDS011;10914;48.886;9.394;2024-01-15T05:49:21;34.03;;;31.10;;
21505;SDS011;10914;48.886;9.394;2024-01-15T05:51:46;34.25;;;31.15;;
21505;SDS011;10914;48.886;9.394;2024-01-15T05:54:12;33.60;;;30.80;;
21505;SDS011;10914;48.886;9.394;2024-01-15T05:56:37;35.17;;;31.95;;
21505;SDS011;10914;48.886;9.394;2024-01-15T05:59:02;34.47;;;31.30;;
21505;SDS011;10914;48.886;9.394;2024-01-15T06:01:27;33.97;;;31.25;;
21505;SDS011;10914;48.886;9.394;2024-01-15T06:03:52;33.95;;;31.13;;
21505;SDS011;10914;48.886;9.394;2024-01-15T06:06:18;35.38;;;32.17;;
21505;SDS011;10914;48.886;9.394;2024-01-15T06:08:43;34.97;;;31.98;;
21505;SDS011;10914;48.886;9.394;2024-01-15T06:11:08;34.38;;;31.38;;
21505;SDS011;10914;48.886;9.394;2024-01-15T06:13:33;35.28;;;31.77;;
21505;SDS011;10914;48.886;9.394;2024-01-15T06:15:58;33.30;;;30.30;;
21505;SDS011;10914;48.886;9.394;2024-01-15T06:18:23;34.10;;;31.15;;
21505;SDS011;10914;48.886;9.394;2024-01-15T06:20:48;35.05;;;31.85;;
21505;SDS011;10914;48.886;9.394;2024-01-15T06:23:14;35.15;;;31.90;;
21505;SDS011;10914;48.886;9.394;2024-01-15T06:25:39;34.03;;;31.02;;
21505;SDS011;10914;48.886;9.394;2024-01-15T06:28:04;33.55;;;30.77;;
21505;SDS011;10914;48.886;9.394;2024-01-15T06:30:30;33.75;;;30.70;;
21505;SDS011;10914;48.886;9.394;2024-01-15T06:32:55;38.67;;;35.05;;
21505;SDS011;10914;48.886;9.394;2024-01-15T06:35:20;66.13;;;51.05;;
21505;SDS011;10914;48.886;9.394;2024-01-15T06:37:46;45.88;;;41.33;;
21505;SDS011;10914;48.886;9.394;2024-01-15T06:40:11;41.70;;;37.78;;
21505;SDS011;10914;48.886;9.394;2024-01-15T06:42:36;36.20;;;33.00;;
21505;SDS011;10914;48.886;9.394;2024-01-15T06:45:01;35.53;;;32.70;;
21505;SDS011;10914;48.886;9.394;2024-01-15T06:47:26;36.08;;;33.00;;
21505;SDS011;10914;48.886;9.394;2024-01-15T06:49:51;36.10;;;33.05;;
21505;SDS011;10914;48.886;9.394;2024-01-15T06:52:17;35.38;;;32.50;;
21505;SDS011;10914;48.886;9.394;2024-01-15T06:54:42;35.65;;;32.75;;
21505;SDS011;10914;48.886;9.394;2024-01-15T06:57:07;40.42;;;37.25;;
21505;SDS011;10914;48.886;9.394;2024-01-15T06:59:33;39.45;;;36.25;;
21505;SDS011;10914;48.886;9.394;2024-01-15T07:01:58;38.70;;;34.92;;
21505;SDS011;10914;48.886;9.394;2024-01-15T07:04:24;38.83;;;35.47;;
21505;SDS011;10914;48.886;9.394;2024-01-15T07:06:49;41.03;;;37.30;;
21505;SDS011;10914;48.886;9.394;2024-01-15T07:09:15;39.63;;;36.13;;
21505;SDS011;10914;48.886;9.394;2024-01-15T07:11:45;40.83;;;37.45;;
21505;SDS011;10914;48.886;9.394;2024-01-15T07:14:11;39.78;;;36.40;;
21505;SDS011;10914;48.886;9.394;2024-01-15T07:16:36;39.30;;;36.03;;
21505;SDS011;10914;48.886;9.394;2024-01-15T07:19:01;38.80;;;35.72;;
21505;SDS011;10914;48.886;9.394;2024-01-15T07:21:27;38.50;;;35.33;;
21505;SDS011;10914;48.886;9.394;2024-01-15T07:23:52;37.95;;;34.95;;
21505;SDS011;10914;48.886;9.394;2024-01-15T07:26:17;39.38;;;36.17;;
21505;SDS011;10914;48.886;9.394;2024-01-15T07:28:42;39.25;;;36.15;;
21505;SDS011;10914;48.886;9.394;2024-01-15T07:31:08;38.83;;;35.67;;
21505;SDS011;10914;48.886;9.394;2024-01-15T07:33:33;39.30;;;36.10;;
21505;SDS011;10914;48.886;9.394;2024-01-15T07:35:59;40.25;;;36.85;;
21505;SDS011;10914;48.886;9.394;2024-01-15T07:38:24;37.05;;;33.90;;
21505;SDS011;10914;48.886;9.394;2024-01-15T07:40:49;35.42;;;32.40;;
21505;SDS011;10914;48.886;9.394;2024-01-15T07:43:15;37.08;;;34.28;;
21505;SDS011;10914;48.886;9.394;2024-01-15T07:45:40;37.38;;;34.28;;
21505;SDS011;10914;48.886;9.394;2024-01-15T07:48:05;39.42;;;36.13;;
21505;SDS011;10914;48.886;9.394;2024-01-15T07:50:31;40.38;;;37.17;;
21505;SDS011;10914;48.886;9.394;2024-01-15T07:52:56;39.58;;;36.38;;
21505;SDS011;10914;48.886;9.394;2024-01-15T07:55:22;41.83;;;38.20;;
21505;SDS011;10914;48.886;9.394;2024-01-15T07:57:47;40.00;;;36.15;;
21505;SDS011;10914;48.886;9.394;2024-01-15T08:00:12;39.90;;;36.45;;
21505;SDS011;10914;48.886;9.394;2024-01-15T08:02:38;36.65;;;33.40;;
21505;SDS011;10914;48.886;9.394;2024-01-15T08:05:03;35.10;;;32.17;;
21505;SDS011;10914;48.886;9.394;2024-01-15T08:07:28;34.50;;;31.67;;
21505;SDS011;10914;48.886;9.394;2024-01-15T08:09:54;34.55;;;31.63;;
21505;SDS011;10914;48.886;9.394;2024-01-15T08:12:19;34.47;;;31.77;;
21505;SDS011;10914;48.886;9.394;2024-01-15T08:14:44;34.53;;;31.85;;
21505;SDS011;10914;48.886;9.394;2024-01-15T08:17:10;34.42;;;31.52;;
21505;SDS011;10914;48.886;9.394;2024-01-15T08:19:35;33.43;;;30.73;;
21505;SDS011;10914;48.886;9.394;2024-01-15T08:22:00;32.83;;;30.33;;
21505;SDS011;10914;48.886;9.394;2024-01-15T08:24:25;33.40;;;30.42;;
21505;SDS011;10914;48.886;9.394;2024-01-15T08:26:51;32.90;;;30.48;;
21505;SDS011;10914;48.886;9.394;2024-01-15T08:29:16;34.72;;;31.73;;
21505;SDS011;10914;48.886;9.394;2024-01-15T08:31:43;33.83;;;31.00;;
21505;SDS011;10914;48.886;9.394;2024-01-15T08:34:08;37.60;;;34.13;;
21505;SDS011;10914;48.886;9.394;2024-01-15T08:36:34;35.55;;;32.55;;
21505;SDS011;10914;48.886;9.394;2024-01-15T08:39:02;33.05;;;30.48;;
21505;SDS011;10914;48.886;9.394;2024-01-15T08:41:29;32.42;;;29.92;;
21505;SDS011;10914;48.886;9.394;2024-01-15T08:43:54;32.83;;;30.13;;
21505;SDS011;10914;48.886;9.394;2024-01-15T08:46:19;33.53;;;30.75;;
21505;SDS011;10914;48.886;9.394;2024-01-15T08:48:44;33.65;;;31.00;;
21505;SDS011;10914;48.886;9.394;2024-01-15T08:51:09;33.92;;;31.10;;
21505;SDS011;10914;48.886;9.394;2024-01-15T08:53:34;33.87;;;31.17;;
21505;SDS011;10914;48.886;9.394;2024-01-15T08:56:00;34.97;;;31.95;;
21505;SDS011;10914;48.886;9.394;2024-01-15T08:58:25;32.90;;;30.33;;
21505;SDS011;10914;48.886;9.394;2024-01-15T09:00:50;32.95;;;30.38;;
21505;SDS011;10914;48.886;9.394;2024-01-15T09:03:16;32.10;;;29.52;;
21505;SDS011;10914;48.886;9.394;2024-01-15T09:05:41;32.58;;;30.00;;
21505;SDS011;10914;48.886;9.394;2024-01-15T09:08:06;32.78;;;30.17;;
21505;SDS011;10914;48.886;9.394;2024-01-15T09:10:31;32.72;;;29.90;;
21505;SDS011;10914;48.886;9.394;2024-01-15T09:12:57;32.40;;;29.67;;
21505;SDS011;10914;48.886;9.394;2024-01-15T09:15:22;32.60;;;30.02;;
21505;SDS011;10914;48.886;9.394;2024-01-15T09:17:48;32.45;;;29.85;;
21505;SDS011;10914;48.886;9.394;2024-01-15T09:20:13;32.85;;;30.10;;
21505;SDS011;10914;48.886;9.394;2024-01-15T09:22:38;32.67;;;30.02;;
21505;SDS011;10914;48.886;9.394;2024-01-15T09:25:06;31.90;;;29.50;;
21505;SDS011;10914;48.886;9.394;2024-01-15T09:27:32;32.33;;;29.83;;
21505;SDS011;10914;48.886;9.394;2024-01-15T09:29:57;33.22;;;30.58;;
21505;SDS011;10914;48.886;9.394;2024-01-15T09:32:22;32.67;;;29.98;;
21505;SDS011;10914;48.886;9.394;2024-01-15T09:34:48;32.03;;;29.35;;
21505;SDS011;10914;48.886;9.394;2024-01-15T09:37:13;30.77;;;28.05;;
21505;SDS011;10914;48.886;9.394;2024-01-15T09:39:39;30.42;;;27.85;;
21505;SDS011;10914;48.886;9.394;2024-01-15T09:42:04;31.52;;;28.83;;
21505;SDS011;10914;48.886;9.394;2024-01-15T09:44:29;31.38;;;29.00;;
21505;SDS011;10914;48.886;9.394;2024-01-15T09:46:55;30.63;;;28.40;;
21505;SDS011;10914;48.886;9.394;2024-01-15T09:49:21;30.05;;;27.90;;
21505;SDS011;10914;48.886;9.394;2024-01-15T09:51:46;30.63;;;28.25;;
21505;SDS011;10914;48.886;9.394;2024-01-15T09:54:12;31.38;;;29.08;;
21505;SDS011;10914;48.886;9.394;2024-01-15T09:56:38;31.75;;;29.08;;
21505;SDS011;10914;48.886;9.394;2024-01-15T09:59:04;30.90;;;28.52;;
21505;SDS011;10914;48.886;9.394;2024-01-15T10:01:29;30.85;;;28.35;;
21505;SDS011;10914;48.886;9.394;2024-01-15T10:03:56;31.05;;;28.83;;
21505;SDS011;10914;48.886;9.394;2024-01-15T10:06:21;31.75;;;29.40;;
21505;SDS011;10914;48.886;9.394;2024-01-15T10:08:47;33.33;;;30.83;;
21505;SDS011;10914;48.886;9.394;2024-01-15T10:11:13;32.78;;;30.35;;
21505;SDS011;10914;48.886;9.394;2024-01-15T10:13:39;32.97;;;29.90;;
21505;SDS011;10914;48.886;9.394;2024-01-15T10:16:04;32.25;;;29.85;;
21505;SDS011;10914;48.886;9.394;2024-01-15T10:18:29;33.58;;;31.27;;
21505;SDS011;10914;48.886;9.394;2024-01-15T10:20:55;35.60;;;32.22;;
21505;SDS011;10914;48.886;9.394;2024-01-15T10:23:20;33.63;;;31.15;;
21505;SDS011;10914;48.886;9.394;2024-01-15T10:25:45;34.03;;;31.73;;
21505;SDS011;10914;48.886;9.394;2024-01-15T10:28:11;33.70;;;31.02;;
21505;SDS011;10914;48.886;9.394;2024-01-15T10:30:38;33.88;;;31.27;;
21505;SDS011;10914;48.886;9.394;2024-01-15T10:33:03;34.67;;;31.85;;
21505;SDS011;10914;48.886;9.394;2024-01-15T10:35:29;33.95;;;31.17;;
21505;SDS011;10914;48.886;9.394;2024-01-15T10:37:54;32.22;;;29.73;;
21505;SDS011;10914;48.886;9.394;2024-01-15T10:40:19;31.42;;;29.25;;
21505;SDS011;10914;48.886;9.394;2024-01-15T10:42:45;33.47;;;30.37;;
21505;SDS011;10914;48.886;9.394;2024-01-15T10:45:11;32.35;;;30.02;;
21505;SDS011;10914;48.886;9.394;2024-01-15T10:47:37;32.55;;;30.05;;
21505;SDS011;10914;48.886;9.394;2024-01-15T10:50:02;30.90;;;28.23;;
21505;SDS011;10914;48.886;9.394;2024-01-15T10:52:28;32.42;;;30.02;;
21505;SDS011;10914;48.886;9.394;2024-01-15T10:54:54;31.88;;;29.58;;
21505;SDS011;10914;48.886;9.394;2024-01-15T10:57:20;30.30;;;28.20;;
21505;SDS011;10914;48.886;9.394;2024-01-15T10:59:46;30.83;;;28.83;;
21505;SDS011;10914;48.886;9.394;2024-01-15T11:02:12;30.98;;;28.88;;
21505;SDS011;10914;48.886;9.394;2024-01-15T11:04:38;30.58;;;28.58;;
21505;SDS011;10914;48.886;9.394;2024-01-15T11:07:03;32.72;;;30.10;;
21505;SDS011;10914;48.886;9.394;2024-01-15T11:09:30;30.15;;;28.15;;
21505;SDS011;10914;48.886;9.394;2024-01-15T11:12:09;31.88;;;29.77;;
21505;SDS011;10914;48.886;9.394;2024-01-15T11:17:00;29.90;;;27.92;;
21505;SDS011;10914;48.886;9.394;2024-01-15T11:19:25;30.17;;;28.13;;
21505;SDS011;10914;48.886;9.394;2024-01-15T11:21:51;30.20;;;28.17;;
21505;SDS011;10914;48.886;9.394;2024-01-15T11:24:35;29.23;;;27.02;;
21505;SDS011;10914;48.886;9.394;2024-01-15T11:27:03;30.67;;;28.52;;
21505;SDS011;10914;48.886;9.394;2024-01-15T11:29:35;31.00;;;28.80;;
21505;SDS011;10914;48.886;9.394;2024-01-15T11:32:01;30.73;;;28.50;;
21505;SDS011;10914;48.886;9.394;2024-01-15T11:37:11;28.27;;;26.48;;
21505;SDS011;10914;48.886;9.394;2024-01-15T11:39:41;28.83;;;27.00;;
21505;SDS011;10914;48.886;9.394;2024-01-15T11:42:10;29.90;;;27.90;;
21505;SDS011;10914;48.886;9.394;2024-01-15T11:44:36;29.33;;;27.33;;
21505;SDS011;10914;48.886;9.394;2024-01-15T11:47:02;30.77;;;28.50;;
21505;SDS011;10914;48.886;9.394;2024-01-15T11:51:59;29.70;;;27.60;;
21505;SDS011;10914;48.886;9.394;2024-01-15T11:54:25;30.58;;;28.42;;
21505;SDS011;10914;48.886;9.394;2024-01-15T11:56:54;31.60;;;29.40;;
21505;SDS011;10914;48.886;9.394;2024-01-15T11:59:20;30.25;;;28.08;;
21505;SDS011;10914;48.886;9.394;2024-01-15T12:01:45;29.93;;;27.80;;
21505;SDS011;10914;48.886;9.394;2024-01-15T12:04:10;30.00;;;27.88;;
21505;SDS011;10914;48.886;9.394;2024-01-15T12:06:36;32.75;;;30.30;;
21505;SDS011;10914;48.886;9.394;2024-01-15T12:09:07;30.97;;;28.87;;
21505;SDS011;10914;48.886;9.394;2024-01-15T12:11:32;31.50;;;29.23;;
21505;SDS011;10914;48.886;9.394;2024-01-15T12:14:00;31.48;;;29.38;;
21505;SDS011;10914;48.886;9.394;2024-01-15T12:16:25;32.22;;;29.77;;
21505;SDS011;10914;48.886;9.394;2024-01-15T12:18:50;32.97;;;30.60;;
21505;SDS011;10914;48.886;9.394;2024-01-15T12:21:16;32.35;;;30.00;;
21505;SDS011;10914;48.886;9.394;2024-01-15T12:23:41;32.13;;;29.77;;
21505;SDS011;10914;48.886;9.394;2024-01-15T12:26:06;30.75;;;28.65;;
21505;SDS011;10914;48.886;9.394;2024-01-15T12:28:31;32.58;;;30.08;;
21505;SDS011;10914;48.886;9.394;2024-01-15T12:30:56;32.93;;;30.50;;
21505;SDS011;10914;48.886;9.394;2024-01-15T12:33:21;34.22;;;31.58;;
21505;SDS011;10914;48.886;9.394;2024-01-15T12:35:47;34.75;;;32.10;;
21505;SDS011;10914;48.886;9.394;2024-01-15T12:38:12;36.88;;;34.38;;
21505;SDS011;10914;48.886;9.394;2024-01-15T12:40:37;36.33;;;33.72;;
21505;SDS011;10914;48.886;9.394;2024-01-15T12:43:02;37.97;;;34.97;;
21505;SDS011;10914;48.886;9.394;2024-01-15T12:45:27;39.05;;;36.33;;
21505;SDS011;10914;48.886;9.394;2024-01-15T12:47:53;43.55;;;40.30;;
21505;SDS011;10914;48.886;9.394;2024-01-15T12:50:18;48.22;;;44.78;;
21505;SDS011;10914;48.886;9.394;2024-01-15T12:52:43;43.55;;;39.88;;
21505;SDS011;10914;48.886;9.394;2024-01-15T12:55:09;51.15;;;47.58;;
21505;SDS011;10914;48.886;9.394;2024-01-15T12:57:34;45.70;;;42.05;;
21505;SDS011;10914;48.886;9.394;2024-01-15T13:00:00;41.63;;;38.33;;
21505;SDS011;10914;48.886;9.394;2024-01-15T13:02:25;42.45;;;39.17;;
21505;SDS011;10914;48.886;9.394;2024-01-15T13:04:50;47.72;;;44.28;;
21505;SDS011;10914;48.886;9.394;2024-01-15T13:07:16;39.95;;;36.80;;
21505;SDS011;10914;48.886;9.394;2024-01-15T13:09:41;39.15;;;36.25;;
21505;SDS011;10914;48.886;9.394;2024-01-15T13:12:07;42.97;;;39.65;;
21505;SDS011;10914;48.886;9.394;2024-01-15T13:14:32;42.10;;;39.25;;
21505;SDS011;10914;48.886;9.394;2024-01-15T13:17:00;41.60;;;38.88;;
21505;SDS011;10914;48.886;9.394;2024-01-15T13:19:25;38.00;;;35.15;;
21505;SDS011;10914;48.886;9.394;2024-01-15T13:21:51;38.65;;;35.95;;
21505;SDS011;10914;48.886;9.394;2024-01-15T13:24:16;36.20;;;33.78;;
21505;SDS011;10914;48.886;9.394;2024-01-15T13:26:41;36.30;;;33.58;;
21505;SDS011;10914;48.886;9.394;2024-01-15T13:29:07;39.13;;;35.93;;
21505;SDS011;10914;48.886;9.394;2024-01-15T13:31:32;42.03;;;38.97;;
21505;SDS011;10914;48.886;9.394;2024-01-15T13:33:57;37.72;;;35.03;;
21505;SDS011;10914;48.886;9.394;2024-01-15T13:36:23;38.33;;;35.72;;
21505;SDS011;10914;48.886;9.394;2024-01-15T13:38:51;39.97;;;37.05;;
21505;SDS011;10914;48.886;9.394;2024-01-15T13:41:17;39.58;;;36.67;;
21505;SDS011;10914;48.886;9.394;2024-01-15T13:43:44;40.30;;;37.33;;
21505;SDS011;10914;48.886;9.394;2024-01-15T13:46:09;35.35;;;32.75;;
21505;SDS011;10914;48.886;9.394;2024-01-15T13:48:34;36.17;;;33.10;;
21505;SDS011;10914;48.886;9.394;2024-01-15T13:51:00;34.63;;;32.10;;
21505;SDS011;10914;48.886;9.394;2024-01-15T13:53:25;34.75;;;31.75;;
21505;SDS011;10914;48.886;9.394;2024-01-15T13:55:51;32.92;;;30.67;;
21505;SDS011;10914;48.886;9.394;2024-01-15T13:58:16;42.10;;;39.33;;
21505;SDS011;10914;48.886;9.394;2024-01-15T14:00:43;35.47;;;32.97;;
21505;SDS011;10914;48.886;9.394;2024-01-15T14:03:08;33.85;;;31.73;;
21505;SDS011;10914;48.886;9.394;2024-01-15T14:05:33;39.63;;;37.13;;
21505;SDS011;10914;48.886;9.394;2024-01-15T14:07:58;43.58;;;40.85;;
21505;SDS011;10914;48.886;9.394;2024-01-15T14:10:24;44.60;;;41.90;;
21505;SDS011;10914;48.886;9.394;2024-01-15T14:12:49;37.35;;;35.00;;
21505;SDS011;10914;48.886;9.394;2024-01-15T14:15:14;52.10;;;48.97;;
21505;SDS011;10914;48.886;9.394;2024-01-15T14:17:39;45.35;;;42.50;;